sensor_id;sensor_type;location;lat;lon;timestamp;pressure;altitude;pressure_sealevel;temperature;humidity
9676;BME280;4876;42.656;23.292;2023-01-16T00:00:07;94233.22;;;1.42;98.83
9676;BME280;4876;42.656;23.292;2023-01-16T00:02:36;94233.22;;;1.37;98.48
9676;BME280;4876;42.656;23.292;2023-01-16T00:05:03;94236.03;;;1.30;98.47
9676;BME280;4876;42.656;23.292;2023-01-16T00:07:30;94233.44;;;1.25;99.35
9676;BME280;4876;42.656;23.292;2023-01-16T00:09:57;94224.09;;;1.19;100.00
9676;BME280;4876;42.656;23.292;2023-01-16T00:12:25;94213.44;;;1.16;100.00
9676;BME280;4876;42.656;23.292;2023-01-16T00:14:52;94234.75;;;1.33;98.50
9676;BME280;4876;42.656;23.292;2023-01-16T00:17:18;94223.91;;;1.46;96.93
9676;BME280;4876;42.656;23.292;2023-01-16T00:19:45;94226.75;;;1.45;96.36
9676;BME280;4876;42.656;23.292;2023-01-16T00:22:13;94217.69;;;1.47;95.77
9676;BME280;4876;42.656;23.292;2023-01-16T00:24:40;94214.56;;;1.45;94.17
9676;BME280;4876;42.656;23.292;2023-01-16T00:27:07;94215.84;;;1.38;95.54
9676;BME280;4876;42.656;23.292;2023-01-16T00:29:35;94211.97;;;1.45;96.39
9676;BME280;4876;42.656;23.292;2023-01-16T00:32:02;94181.38;;;1.42;94.44
9676;BME280;4876;42.656;23.292;2023-01-16T00:34:29;94195.16;;;1.53;94.11
9676;BME280;4876;42.656;23.292;2023-01-16T00:36:55;94190.75;;;1.53;94.02
9676;BME280;4876;42.656;23.292;2023-01-16T00:39:22;94201.88;;;1.54;94.23
9676;BME280;4876;42.656;23.292;2023-01-16T00:41:49;94196.22;;;1.62;93.79
9676;BME280;4876;42.656;23.292;2023-01-16T00:44:16;94195.44;;;1.61;92.74
9676;BME280;4876;42.656;23.292;2023-01-16T00:46:46;94192.56;;;1.53;93.14
9676;BME280;4876;42.656;23.292;2023-01-16T00:49:12;94195.94;;;1.58;92.08
9676;BME280;4876;42.656;23.292;2023-01-16T00:51:39;94194.41;;;1.57;92.00
9676;BME280;4876;42.656;23.292;2023-01-16T00:54:06;94199.31;;;1.59;92.12
9676;BME280;4876;42.656;23.292;2023-01-16T00:56:33;94199.06;;;1.60;89.65
9676;BME280;4876;42.656;23.292;2023-01-16T00:59:00;94199.28;;;1.49;89.61
9676;BME280;4876;42.656;23.292;2023-01-16T01:01:26;94198.91;;;1.10;90.41
9676;BME280;4876;42.656;23.292;2023-01-16T01:03:54;94166.81;;;1.11;92.26
9676;BME280;4876;42.656;23.292;2023-01-16T01:06:21;94192.00;;;1.35;90.96
9676;BME280;4876;42.656;23.292;2023-01-16T01:08:48;94186.56;;;1.42;90.99
9676;BME280;4876;42.656;23.292;2023-01-16T01:11:15;94187.59;;;1.36;92.45
9676;BME280;4876;42.656;23.292;2023-01-16T01:13:43;94168.16;;;1.28;93.50
9676;BME280;4876;42.656;23.292;2023-01-16T01:16:10;94191.28;;;1.55;93.12
9676;BME280;4876;42.656;23.292;2023-01-16T01:18:37;94190.25;;;1.61;92.83
9676;BME280;4876;42.656;23.292;2023-01-16T01:21:09;94188.19;;;1.64;93.54
9676;BME280;4876;42.656;23.292;2023-01-16T01:23:36;94178.84;;;1.57;94.18
9676;BME280;4876;42.656;23.292;2023-01-16T01:26:07;94184.53;;;1.59;95.29
9676;BME280;4876;42.656;23.292;2023-01-16T01:28:33;94173.66;;;1.57;96.05
9676;BME280;4876;42.656;23.292;2023-01-16T01:31:02;94174.69;;;1.67;96.29
9676;BME280;4876;42.656;23.292;2023-01-16T01:33:29;94171.63;;;1.75;95.87
9676;BME280;4876;42.656;23.292;2023-01-16T01:35:56;94174.22;;;1.75;96.33
9676;BME280;4876;42.656;23.292;2023-01-16T01:38:24;94173.16;;;1.71;96.52
9676;BME280;4876;42.656;23.292;2023-01-16T01:40:51;94162.25;;;1.58;97.63
9676;BME280;4876;42.656;23.292;2023-01-16T01:43:18;94151.84;;;1.33;98.99
9676;BME280;4876;42.656;23.292;2023-01-16T01:45:48;94153.44;;;1.44;100.00
9676;BME280;4876;42.656;23.292;2023-01-16T01:48:22;94151.56;;;1.29;100.00
9676;BME280;4876;42.656;23.292;2023-01-16T01:50:53;94138.06;;;1.17;100.00
9676;BME280;4876;42.656;23.292;2023-01-16T01:53:27;94147.72;;;1.37;100.00
9676;BME280;4876;42.656;23.292;2023-01-16T01:56:01;94137.34;;;1.27;100.00
9676;BME280;4876;42.656;23.292;2023-01-16T01:58:33;94151.06;;;1.32;100.00
9676;BME280;4876;42.656;23.292;2023-01-16T02:01:00;94146.69;;;1.53;100.00
9676;BME280;4876;42.656;23.292;2023-01-16T02:03:30;94146.22;;;1.61;100.00
9676;BME280;4876;42.656;23.292;2023-01-16T02:06:01;94145.66;;;1.59;100.00
9676;BME280;4876;42.656;23.292;2023-01-16T02:08:32;94138.63;;;1.34;100.00
9676;BME280;4876;42.656;23.292;2023-01-16T02:11:03;94136.28;;;1.28;100.00
9676;BME280;4876;42.656;23.292;2023-01-16T02:13:31;94134.75;;;1.32;100.00
9676;BME280;4876;42.656;23.292;2023-01-16T02:15:58;94137.38;;;1.47;100.00
9676;BME280;4876;42.656;23.292;2023-01-16T02:18:42;94135.28;;;1.34;100.00
9676;BME280;4876;42.656;23.292;2023-01-16T02:21:53;94126.44;;;1.30;100.00
9676;BME280;4876;42.656;23.292;2023-01-16T02:24:55;94129.53;;;1.22;100.00
9676;BME280;4876;42.656;23.292;2023-01-16T02:27:43;94116.50;;;0.86;100.00
9676;BME280;4876;42.656;23.292;2023-01-16T02:30:32;94122.03;;;1.20;100.00
9676;BME280;4876;42.656;23.292;2023-01-16T02:33:12;94117.91;;;1.24;100.00
9676;BME280;4876;42.656;23.292;2023-01-16T02:35:54;94114.81;;;1.43;100.00
9676;BME280;4876;42.656;23.292;2023-01-16T02:38:32;94108.38;;;1.55;98.61
9676;BME280;4876;42.656;23.292;2023-01-16T02:41:08;94114.03;;;1.42;98.29
9676;BME280;4876;42.656;23.292;2023-01-16T02:43:47;94109.66;;;1.53;97.71
9676;BME280;4876;42.656;23.292;2023-01-16T02:46:21;94114.56;;;1.59;97.07
9676;BME280;4876;42.656;23.292;2023-01-16T02:48:58;94118.44;;;1.47;96.99
9676;BME280;4876;42.656;23.292;2023-01-16T02:51:32;94106.72;;;1.03;99.26
9676;BME280;4876;42.656;23.292;2023-01-16T02:54:05;94106.50;;;1.20;98.95
9676;BME280;4876;42.656;23.292;2023-01-16T02:56:40;94094.06;;;1.12;98.90
9676;BME280;4876;42.656;23.292;2023-01-16T02:59:09;94094.31;;;1.11;99.34
9676;BME280;4876;42.656;23.292;2023-01-16T03:01:37;94090.50;;;0.56;100.00
9676;BME280;4876;42.656;23.292;2023-01-16T03:07:44;94092.66;;;0.69;100.00
9676;BME280;4876;42.656;23.292;2023-01-16T03:10:39;94085.84;;;0.47;100.00
9676;BME280;4876;42.656;23.292;2023-01-16T03:13:18;94092.25;;;0.35;100.00
9676;BME280;4876;42.656;23.292;2023-01-16T03:15:54;94081.28;;;0.70;100.00
9676;BME280;4876;42.656;23.292;2023-01-16T03:18:34;94081.31;;;0.85;100.00
9676;BME280;4876;42.656;23.292;2023-01-16T03:21:06;94075.41;;;1.00;100.00
9676;BME280;4876;42.656;23.292;2023-01-16T03:23:40;94069.44;;;1.10;100.00
9676;BME280;4876;42.656;23.292;2023-01-16T03:26:19;94066.38;;;1.13;100.00
9676;BME280;4876;42.656;23.292;2023-01-16T03:28:57;94062.19;;;1.01;100.00
9676;BME280;4876;42.656;23.292;2023-01-16T03:31:30;94061.34;;;0.70;100.00
9676;BME280;4876;42.656;23.292;2023-01-16T03:34:05;94061.13;;;0.87;100.00
9676;BME280;4876;42.656;23.292;2023-01-16T03:36:38;94065.50;;;0.76;100.00
9676;BME280;4876;42.656;23.292;2023-01-16T03:39:10;94049.50;;;0.90;100.00
9676;BME280;4876;42.656;23.292;2023-01-16T03:41:40;94043.88;;;0.35;100.00
9676;BME280;4876;42.656;23.292;2023-01-16T03:44:13;94034.97;;;0.11;100.00
9676;BME280;4876;42.656;23.292;2023-01-16T03:46:45;94035.28;;;0.24;100.00
9676;BME280;4876;42.656;23.292;2023-01-16T03:49:17;94038.44;;;0.32;100.00
9676;BME280;4876;42.656;23.292;2023-01-16T03:51:48;94033.03;;;0.33;100.00
9676;BME280;4876;42.656;23.292;2023-01-16T03:54:27;94031.44;;;0.27;100.00
9676;BME280;4876;42.656;23.292;2023-01-16T03:57:05;94031.03;;;0.50;100.00
9676;BME280;4876;42.656;23.292;2023-01-16T03:59:34;94022.25;;;0.57;100.00
9676;BME280;4876;42.656;23.292;2023-01-16T04:02:05;94025.84;;;0.61;100.00
9676;BME280;4876;42.656;23.292;2023-01-16T04:04:40;94032.88;;;0.70;100.00
9676;BME280;4876;42.656;23.292;2023-01-16T04:07:13;94028.28;;;1.03;100.00
9676;BME280;4876;42.656;23.292;2023-01-16T04:09:50;94025.91;;;0.86;100.00
9676;BME280;4876;42.656;23.292;2023-01-16T04:12:22;94011.69;;;0.99;100.00
9676;BME280;4876;42.656;23.292;2023-01-16T04:14:54;94016.09;;;0.83;99.73
9676;BME280;4876;42.656;23.292;2023-01-16T04:17:22;94025.66;;;0.93;99.13
9676;BME280;4876;42.656;23.292;2023-01-16T04:19:52;94026.22;;;1.00;98.51
9676;BME280;4876;42.656;23.292;2023-01-16T04:22:20;94014.22;;;0.58;99.56
9676;BME280;4876;42.656;23.292;2023-01-16T04:24:56;94017.06;;;0.51;100.00
9676;BME280;4876;42.656;23.292;2023-01-16T04:27:24;93991.16;;;0.41;100.00
9676;BME280;4876;42.656;23.292;2023-01-16T04:29:51;94018.88;;;0.66;100.00
9676;BME280;4876;42.656;23.292;2023-01-16T04:32:17;94021.75;;;0.70;100.00
9676;BME280;4876;42.656;23.292;2023-01-16T04:34:45;94002.75;;;0.29;100.00
9676;BME280;4876;42.656;23.292;2023-01-16T04:37:12;94012.88;;;0.45;100.00
9676;BME280;4876;42.656;23.292;2023-01-16T04:39:39;94005.69;;;0.58;100.00
9676;BME280;4876;42.656;23.292;2023-01-16T04:42:08;93999.69;;;0.47;100.00
9676;BME280;4876;42.656;23.292;2023-01-16T04:44:35;94001.69;;;0.24;100.00
9676;BME280;4876;42.656;23.292;2023-01-16T04:47:02;94002.94;;;0.12;100.00
9676;BME280;4876;42.656;23.292;2023-01-16T04:49:29;94008.72;;;0.39;100.00
9676;BME280;4876;42.656;23.292;2023-01-16T04:51:56;94003.03;;;0.42;100.00
9676;BME280;4876;42.656;23.292;2023-01-16T04:54:23;93993.06;;;-0.02;100.00
9676;BME280;4876;42.656;23.292;2023-01-16T04:56:50;93997.31;;;0.25;100.00
9676;BME280;4876;42.656;23.292;2023-01-16T04:59:18;93999.44;;;0.48;100.00
9676;BME280;4876;42.656;23.292;2023-01-16T05:01:45;93987.50;;;0.32;100.00
9676;BME280;4876;42.656;23.292;2023-01-16T05:04:14;93989.75;;;0.08;100.00
9676;BME280;4876;42.656;23.292;2023-01-16T05:06:41;94005.78;;;0.10;100.00
9676;BME280;4876;42.656;23.292;2023-01-16T05:09:08;94002.38;;;0.05;100.00
9676;BME280;4876;42.656;23.292;2023-01-16T05:11:35;93996.72;;;0.08;100.00
9676;BME280;4876;42.656;23.292;2023-01-16T05:14:02;93968.56;;;0.16;100.00
9676;BME280;4876;42.656;23.292;2023-01-16T05:16:32;93986.66;;;0.16;100.00
9676;BME280;4876;42.656;23.292;2023-01-16T05:18:58;93986.41;;;0.18;100.00
9676;BME280;4876;42.656;23.292;2023-01-16T05:21:25;93979.50;;;0.34;100.00
9676;BME280;4876;42.656;23.292;2023-01-16T05:23:52;93981.72;;;0.05;100.00
9676;BME280;4876;42.656;23.292;2023-01-16T05:26:19;93973.78;;;0.26;100.00
9676;BME280;4876;42.656;23.292;2023-01-16T05:28:46;93980.31;;;0.44;100.00
9676;BME280;4876;42.656;23.292;2023-01-16T05:31:12;93979.28;;;0.56;100.00
9676;BME280;4876;42.656;23.292;2023-01-16T05:33:41;93978.00;;;0.58;100.00
9676;BME280;4876;42.656;23.292;2023-01-16T05:36:08;93965.84;;;0.59;100.00
9676;BME280;4876;42.656;23.292;2023-01-16T05:38:35;93961.72;;;0.63;100.00
9676;BME280;4876;42.656;23.292;2023-01-16T05:41:01;93958.06;;;0.48;100.00
9676;BME280;4876;42.656;23.292;2023-01-16T05:43:28;93960.69;;;0.69;100.00
9676;BME280;4876;42.656;23.292;2023-01-16T05:45:55;93962.69;;;0.41;100.00
9676;BME280;4876;42.656;23.292;2023-01-16T05:48:22;93964.81;;;0.65;100.00
9676;BME280;4876;42.656;23.292;2023-01-16T05:50:51;93975.44;;;0.73;100.00
9676;BME280;4876;42.656;23.292;2023-01-16T05:53:17;93963.00;;;0.80;100.00
9676;BME280;4876;42.656;23.292;2023-01-16T05:55:45;93945.94;;;0.69;100.00
9676;BME280;4876;42.656;23.292;2023-01-16T05:58:14;93948.78;;;0.73;100.00
9676;BME280;4876;42.656;23.292;2023-01-16T06:00:41;93963.53;;;0.93;100.00
9676;BME280;4876;42.656;23.292;2023-01-16T06:03:08;93966.13;;;0.93;100.00
9676;BME280;4876;42.656;23.292;2023-01-16T06:05:35;93952.94;;;0.94;99.66
9676;BME280;4876;42.656;23.292;2023-01-16T06:08:04;93955.53;;;0.89;99.24
9676;BME280;4876;42.656;23.292;2023-01-16T06:10:31;93954.50;;;0.75;99.79
9676;BME280;4876;42.656;23.292;2023-01-16T06:12:58;93947.25;;;0.82;100.00
9676;BME280;4876;42.656;23.292;2023-01-16T06:15:26;93946.22;;;0.88;99.15
9676;BME280;4876;42.656;23.292;2023-01-16T06:17:52;93949.31;;;0.90;98.24
9676;BME280;4876;42.656;23.292;2023-01-16T06:20:19;93938.16;;;0.74;98.66
9676;BME280;4876;42.656;23.292;2023-01-16T06:22:46;93945.16;;;0.84;100.00
9676;BME280;4876;42.656;23.292;2023-01-16T06:25:14;93952.44;;;0.87;99.83
9676;BME280;4876;42.656;23.292;2023-01-16T06:27:41;93956.81;;;0.76;99.97
9676;BME280;4876;42.656;23.292;2023-01-16T06:30:10;93962.75;;;0.72;100.00
9676;BME280;4876;42.656;23.292;2023-01-16T06:32:37;93957.81;;;0.50;100.00
9676;BME280;4876;42.656;23.292;2023-01-16T06:35:04;93958.84;;;0.44;100.00
9676;BME280;4876;42.656;23.292;2023-01-16T06:37:31;93964.28;;;0.68;100.00
9676;BME280;4876;42.656;23.292;2023-01-16T06:39:58;93960.16;;;0.72;100.00
9676;BME280;4876;42.656;23.292;2023-01-16T06:42:27;93963.28;;;0.64;100.00
9676;BME280;4876;42.656;23.292;2023-01-16T06:44:53;93962.25;;;0.80;100.00
9676;BME280;4876;42.656;23.292;2023-01-16T06:47:20;93954.47;;;1.05;100.00
9676;BME280;4876;42.656;23.292;2023-01-16T06:49:47;93944.63;;;1.18;100.00
9676;BME280;4876;42.656;23.292;2023-01-16T06:52:14;93930.13;;;1.17;100.00
9676;BME280;4876;42.656;23.292;2023-01-16T06:54:41;93934.03;;;1.09;100.00
9676;BME280;4876;42.656;23.292;2023-01-16T06:57:07;93956.03;;;0.96;100.00
9676;BME280;4876;42.656;23.292;2023-01-16T06:59:36;93949.03;;;0.71;100.00
9676;BME280;4876;42.656;23.292;2023-01-16T07:02:02;93952.16;;;0.63;100.00
9676;BME280;4876;42.656;23.292;2023-01-16T07:04:29;93948.50;;;0.54;100.00
9676;BME280;4876;42.656;23.292;2023-01-16T07:06:56;93949.03;;;0.71;100.00
9676;BME280;4876;42.656;23.292;2023-01-16T07:09:23;93945.38;;;0.42;100.00
9676;BME280;4876;42.656;23.292;2023-01-16T07:11:55;93912.00;;;0.35;100.00
9676;BME280;4876;42.656;23.292;2023-01-16T07:14:22;93956.56;;;0.93;100.00
9676;BME280;4876;42.656;23.292;2023-01-16T07:17:08;93936.88;;;0.97;100.00
9676;BME280;4876;42.656;23.292;2023-01-16T07:19:53;93944.66;;;0.87;100.00
9676;BME280;4876;42.656;23.292;2023-01-16T07:22:38;93940.50;;;0.86;100.00
9676;BME280;4876;42.656;23.292;2023-01-16T07:25:09;93935.34;;;0.76;100.00
9676;BME280;4876;42.656;23.292;2023-01-16T07:27:37;93947.22;;;0.92;100.00
9676;BME280;4876;42.656;23.292;2023-01-16T07:30:05;93941.03;;;1.14;100.00
9676;BME280;4876;42.656;23.292;2023-01-16T07:32:34;93932.72;;;1.22;100.00
9676;BME280;4876;42.656;23.292;2023-01-16T07:35:01;93912.28;;;1.05;100.00
9676;BME280;4876;42.656;23.292;2023-01-16T07:37:28;93932.75;;;1.01;100.00
9676;BME280;4876;42.656;23.292;2023-01-16T07:39:55;93930.69;;;0.93;100.00
9676;BME280;4876;42.656;23.292;2023-01-16T07:42:22;93924.97;;;0.96;100.00
9676;BME280;4876;42.656;23.292;2023-01-16T07:44:48;93922.94;;;0.93;100.00
9676;BME280;4876;42.656;23.292;2023-01-16T07:47:15;93919.00;;;1.16;100.00
9676;BME280;4876;42.656;23.292;2023-01-16T07:49:43;93913.06;;;1.16;100.00
9676;BME280;4876;42.656;23.292;2023-01-16T07:52:10;93904.00;;;1.03;100.00
9676;BME280;4876;42.656;23.292;2023-01-16T07:54:37;93899.88;;;1.12;100.00
9676;BME280;4876;42.656;23.292;2023-01-16T07:57:05;93892.09;;;1.12;100.00
9676;BME280;4876;42.656;23.292;2023-01-16T07:59:32;93887.66;;;1.28;100.00
9676;BME280;4876;42.656;23.292;2023-01-16T08:01:59;93866.94;;;1.18;100.00
9676;BME280;4876;42.656;23.292;2023-01-16T08:04:27;93877.06;;;1.19;100.00
9676;BME280;4876;42.656;23.292;2023-01-16T08:06:55;93894.16;;;1.25;100.00
9676;BME280;4876;42.656;23.292;2023-01-16T08:09:22;93888.22;;;0.89;100.00
9676;BME280;4876;42.656;23.292;2023-01-16T08:11:48;93899.88;;;1.02;100.00
9676;BME280;4876;42.656;23.292;2023-01-16T08:14:15;93898.06;;;1.02;100.00
9676;BME280;4876;42.656;23.292;2023-01-16T08:16:42;93894.16;;;1.05;100.00
9676;BME280;4876;42.656;23.292;2023-01-16T08:19:09;93909.97;;;1.19;100.00
9676;BME280;4876;42.656;23.292;2023-01-16T08:21:35;93898.03;;;1.23;100.00
9676;BME280;4876;42.656;23.292;2023-01-16T08:24:04;93909.38;;;1.47;100.00
9676;BME280;4876;42.656;23.292;2023-01-16T08:26:31;93901.16;;;1.20;100.00
9676;BME280;4876;42.656;23.292;2023-01-16T08:28:58;93913.03;;;1.36;100.00
9676;BME280;4876;42.656;23.292;2023-01-16T08:31:27;93902.06;;;1.70;100.00
9676;BME280;4876;42.656;23.292;2023-01-16T08:33:54;93895.69;;;2.06;100.00
9676;BME280;4876;42.656;23.292;2023-01-16T08:36:21;93887.09;;;2.11;100.00
9676;BME280;4876;42.656;23.292;2023-01-16T08:38:48;93874.81;;;1.82;100.00
9676;BME280;4876;42.656;23.292;2023-01-16T08:41:17;93871.91;;;1.89;100.00
9676;BME280;4876;42.656;23.292;2023-01-16T08:44:02;93872.41;;;1.96;100.00
9676;BME280;4876;42.656;23.292;2023-01-16T08:46:52;93870.19;;;1.69;100.00
9676;BME280;4876;42.656;23.292;2023-01-16T08:49:38;93876.84;;;1.91;100.00
9676;BME280;4876;42.656;23.292;2023-01-16T08:52:23;93876.63;;;1.77;100.00
9676;BME280;4876;42.656;23.292;2023-01-16T08:54:52;93863.78;;;1.51;100.00
9676;BME280;4876;42.656;23.292;2023-01-16T08:57:20;93883.88;;;1.80;100.00
9676;BME280;4876;42.656;23.292;2023-01-16T08:59:47;93869.44;;;1.58;100.00
9676;BME280;4876;42.656;23.292;2023-01-16T09:02:14;93872.06;;;1.53;100.00
9676;BME280;4876;42.656;23.292;2023-01-16T09:04:41;93866.78;;;1.79;100.00
9676;BME280;4876;42.656;23.292;2023-01-16T09:07:09;93858.19;;;1.83;100.00
9676;BME280;4876;42.656;23.292;2023-01-16T09:09:36;93863.97;;;2.25;100.00
9676;BME280;4876;42.656;23.292;2023-01-16T09:12:03;93846.25;;;1.87;100.00
9676;BME280;4876;42.656;23.292;2023-01-16T09:14:49;93851.00;;;2.20;100.00
9676;BME280;4876;42.656;23.292;2023-01-16T09:17:16;93855.63;;;2.28;100.00
9676;BME280;4876;42.656;23.292;2023-01-16T09:19:42;93855.63;;;2.28;100.00
9676;BME280;4876;42.656;23.292;2023-01-16T09:22:09;93842.19;;;2.21;100.00
9676;BME280;4876;42.656;23.292;2023-01-16T09:24:36;93828.16;;;2.22;100.00
9676;BME280;4876;42.656;23.292;2023-01-16T09:27:05;93832.66;;;2.50;100.00
9676;BME280;4876;42.656;23.292;2023-01-16T09:29:32;93810.59;;;2.48;98.43
9676;BME280;4876;42.656;23.292;2023-01-16T09:32:00;93830.53;;;2.52;100.00
9676;BME280;4876;42.656;23.292;2023-01-16T09:34:32;93817.91;;;2.75;100.00
9676;BME280;4876;42.656;23.292;2023-01-16T09:36:59;93819.09;;;2.87;97.77
9676;BME280;4876;42.656;23.292;2023-01-16T09:39:26;93826.97;;;3.06;94.72
9676;BME280;4876;42.656;23.292;2023-01-16T09:42:05;93822.06;;;3.05;95.42
9676;BME280;4876;42.656;23.292;2023-01-16T09:44:57;93818.84;;;3.13;93.76
9676;BME280;4876;42.656;23.292;2023-01-16T09:47:28;93804.75;;;2.95;93.50
9676;BME280;4876;42.656;23.292;2023-01-16T09:50:00;93794.88;;;2.68;94.75
9676;BME280;4876;42.656;23.292;2023-01-16T09:52:31;93763.78;;;2.63;94.11
9676;BME280;4876;42.656;23.292;2023-01-16T09:55:21;93785.44;;;3.30;90.62
9676;BME280;4876;42.656;23.292;2023-01-16T09:58:13;93784.41;;;3.50;88.40
9676;BME280;4876;42.656;23.292;2023-01-16T10:00:59;93780.44;;;3.34;89.41
9676;BME280;4876;42.656;23.292;2023-01-16T10:03:28;93791.44;;;3.26;89.87
9676;BME280;4876;42.656;23.292;2023-01-16T10:05:59;93786.63;;;3.38;92.75
9676;BME280;4876;42.656;23.292;2023-01-16T10:08:33;93786.94;;;3.55;91.65
9676;BME280;4876;42.656;23.292;2023-01-16T10:11:09;93771.63;;;3.72;88.91
9676;BME280;4876;42.656;23.292;2023-01-16T10:13:55;93762.03;;;3.92;86.49
9676;BME280;4876;42.656;23.292;2023-01-16T10:16:38;93769.25;;;3.76;86.38
9676;BME280;4876;42.656;23.292;2023-01-16T10:19:18;93767.38;;;3.82;87.09
9676;BME280;4876;42.656;23.292;2023-01-16T10:22:20;93743.72;;;3.97;86.32
9676;BME280;4876;42.656;23.292;2023-01-16T10:24:58;93742.13;;;4.01;85.23
9676;BME280;4876;42.656;23.292;2023-01-16T10:27:34;93735.56;;;4.03;85.15
9676;BME280;4876;42.656;23.292;2023-01-16T10:30:11;93726.72;;;4.04;85.86
9676;BME280;4876;42.656;23.292;2023-01-16T10:32:43;93698.47;;;3.60;88.08
9676;BME280;4876;42.656;23.292;2023-01-16T10:35:33;93711.16;;;3.86;89.76
9676;BME280;4876;42.656;23.292;2023-01-16T10:38:15;93713.94;;;3.70;90.79
9676;BME280;4876;42.656;23.292;2023-01-16T10:40:46;93722.16;;;3.96;89.99
9676;BME280;4876;42.656;23.292;2023-01-16T10:43:21;93722.50;;;3.90;89.25
9676;BME280;4876;42.656;23.292;2023-01-16T10:46:14;93711.50;;;3.98;86.29
9676;BME280;4876;42.656;23.292;2023-01-16T10:48:59;93695.47;;;4.23;85.63
9676;BME280;4876;42.656;23.292;2023-01-16T10:51:54;93679.91;;;4.51;83.10
9676;BME280;4876;42.656;23.292;2023-01-16T10:54:22;93670.63;;;4.31;83.99
9676;BME280;4876;42.656;23.292;2023-01-16T10:56:50;93673.56;;;4.57;83.75
9676;BME280;4876;42.656;23.292;2023-01-16T10:59:19;93656.00;;;4.63;81.42
9676;BME280;4876;42.656;23.292;2023-01-16T11:01:48;93644.06;;;4.75;80.71
9676;BME280;4876;42.656;23.292;2023-01-16T11:04:18;93659.13;;;4.78;81.37
9676;BME280;4876;42.656;23.292;2023-01-16T11:06:46;93629.50;;;4.74;81.60
9676;BME280;4876;42.656;23.292;2023-01-16T11:09:18;93625.03;;;4.89;81.18
9676;BME280;4876;42.656;23.292;2023-01-16T11:11:51;93624.75;;;4.90;81.27
9676;BME280;4876;42.656;23.292;2023-01-16T11:14:40;93626.59;;;4.76;81.13
9676;BME280;4876;42.656;23.292;2023-01-16T11:17:27;93634.59;;;4.93;81.35
9676;BME280;4876;42.656;23.292;2023-01-16T11:20:14;93621.50;;;4.84;82.77
9676;BME280;4876;42.656;23.292;2023-01-16T11:22:45;93626.28;;;5.05;79.47
9676;BME280;4876;42.656;23.292;2023-01-16T11:25:16;93578.03;;;4.94;78.31
9676;BME280;4876;42.656;23.292;2023-01-16T11:27:46;93624.13;;;5.21;77.82
9676;BME280;4876;42.656;23.292;2023-01-16T11:30:17;93622.38;;;5.52;76.89
9676;BME280;4876;42.656;23.292;2023-01-16T11:32:47;93577.56;;;5.28;76.92
9676;BME280;4876;42.656;23.292;2023-01-16T11:35:16;93618.44;;;5.55;76.90
9676;BME280;4876;42.656;23.292;2023-01-16T11:37:45;93607.28;;;5.40;77.15
9676;BME280;4876;42.656;23.292;2023-01-16T11:40:20;93607.66;;;5.48;77.20
9676;BME280;4876;42.656;23.292;2023-01-16T11:42:51;93601.47;;;5.44;77.94
9676;BME280;4876;42.656;23.292;2023-01-16T11:45:42;93603.84;;;5.76;76.86
9676;BME280;4876;42.656;23.292;2023-01-16T11:48:27;93603.00;;;5.45;78.19
9676;BME280;4876;42.656;23.292;2023-01-16T11:50:55;93587.41;;;5.31;78.63
9676;BME280;4876;42.656;23.292;2023-01-16T11:53:22;93564.97;;;5.66;77.37
9676;BME280;4876;42.656;23.292;2023-01-16T11:56:09;93567.41;;;5.85;76.51
9676;BME280;4876;42.656;23.292;2023-01-16T11:58:45;93573.53;;;6.11;75.90
9676;BME280;4876;42.656;23.292;2023-01-16T12:01:19;93564.53;;;5.95;75.65
9676;BME280;4876;42.656;23.292;2023-01-16T12:04:01;93559.34;;;5.95;76.12
9676;BME280;4876;42.656;23.292;2023-01-16T12:06:39;93566.03;;;6.10;75.21
9676;BME280;4876;42.656;23.292;2023-01-16T12:09:39;93564.19;;;5.88;74.85
9676;BME280;4876;42.656;23.292;2023-01-16T12:12:18;93558.19;;;5.87;74.94
9676;BME280;4876;42.656;23.292;2023-01-16T12:15:09;93547.88;;;6.05;79.10
9676;BME280;4876;42.656;23.292;2023-01-16T12:17:53;93549.41;;;6.06;75.45
9676;BME280;4876;42.656;23.292;2023-01-16T12:20:30;93534.22;;;6.08;74.27
9676;BME280;4876;42.656;23.292;2023-01-16T12:23:13;93534.72;;;6.10;73.63
9676;BME280;4876;42.656;23.292;2023-01-16T12:25:54;93526.75;;;6.15;73.13
9676;BME280;4876;42.656;23.292;2023-01-16T12:28:32;93525.59;;;5.99;73.37
9676;BME280;4876;42.656;23.292;2023-01-16T12:31:24;93519.53;;;5.89;75.25
9676;BME280;4876;42.656;23.292;2023-01-16T12:37:16;93510.91;;;5.58;76.38
9676;BME280;4876;42.656;23.292;2023-01-16T12:39:52;93518.69;;;5.72;76.07
9676;BME280;4876;42.656;23.292;2023-01-16T12:42:34;93503.50;;;5.51;76.37
9676;BME280;4876;42.656;23.292;2023-01-16T12:45:31;93505.13;;;5.38;76.83
9676;BME280;4876;42.656;23.292;2023-01-16T12:48:14;93506.19;;;5.15;77.79
9676;BME280;4876;42.656;23.292;2023-01-16T12:50:57;93500.47;;;4.91;79.37
9676;BME280;4876;42.656;23.292;2023-01-16T12:53:50;93502.56;;;5.02;80.31
9676;BME280;4876;42.656;23.292;2023-01-16T12:56:31;93479.88;;;4.80;79.16
9676;BME280;4876;42.656;23.292;2023-01-16T12:59:06;93503.47;;;4.98;78.33
9676;BME280;4876;42.656;23.292;2023-01-16T13:01:40;93483.13;;;4.86;79.94
9676;BME280;4876;42.656;23.292;2023-01-16T13:04:11;93469.38;;;4.72;80.72
9676;BME280;4876;42.656;23.292;2023-01-16T13:06:45;93482.38;;;4.85;80.79
9676;BME280;4876;42.656;23.292;2023-01-16T13:09:17;93475.03;;;4.88;80.13
9676;BME280;4876;42.656;23.292;2023-01-16T13:11:57;93452.19;;;4.84;80.33
9676;BME280;4876;42.656;23.292;2023-01-16T13:14:45;93444.75;;;4.78;80.70
9676;BME280;4876;42.656;23.292;2023-01-16T13:17:18;93454.59;;;4.81;81.02
9676;BME280;4876;42.656;23.292;2023-01-16T13:19:49;93446.78;;;4.81;80.61
9676;BME280;4876;42.656;23.292;2023-01-16T13:22:21;93440.56;;;4.91;81.33
9676;BME280;4876;42.656;23.292;2023-01-16T13:24:54;93416.75;;;4.83;80.25
9676;BME280;4876;42.656;23.292;2023-01-16T13:27:31;93439.53;;;4.78;81.30
9676;BME280;4876;42.656;23.292;2023-01-16T13:30:05;93436.47;;;4.76;81.82
9676;BME280;4876;42.656;23.292;2023-01-16T13:32:38;93422.56;;;4.80;81.43
9676;BME280;4876;42.656;23.292;2023-01-16T13:35:11;93442.94;;;5.01;81.53
9676;BME280;4876;42.656;23.292;2023-01-16T13:38:13;93443.16;;;4.91;82.49
9676;BME280;4876;42.656;23.292;2023-01-16T13:41:02;93439.38;;;4.97;82.22
9676;BME280;4876;42.656;23.292;2023-01-16T13:43:34;93453.34;;;5.01;82.04
9676;BME280;4876;42.656;23.292;2023-01-16T13:46:19;93448.84;;;5.15;80.36
9676;BME280;4876;42.656;23.292;2023-01-16T13:48:52;93440.56;;;5.13;81.25
9676;BME280;4876;42.656;23.292;2023-01-16T13:51:21;93433.59;;;5.22;80.55